createdAt,value
2023-05-12T00:02:46.730Z,11.90
2023-05-12T00:06:47.022Z,10.60
2023-05-12T00:10:47.722Z,15.13
2023-05-12T00:14:50.500Z,11.03
2023-05-12T00:18:52.334Z,14.67
2023-05-12T00:22:52.799Z,10.47
2023-05-12T00:26:53.026Z,12.17
2023-05-12T00:30:56.188Z,13.20
2023-05-12T00:34:57.653Z,12.17
2023-05-12T00:38:58.683Z,11.50
2023-05-12T00:42:58.916Z,12.20
2023-05-12T00:47:02.289Z,12.57
2023-05-12T00:51:04.136Z,13.13
2023-05-12T00:55:05.495Z,11.80
2023-05-12T00:59:06.209Z,13.17
2023-05-12T01:03:10.325Z,11.63
2023-05-12T01:07:21.063Z,11.63
2023-05-12T01:11:21.927Z,13.83
2023-05-12T01:15:22.615Z,12.53
2023-05-12T01:19:42.275Z,14.50
2023-05-12T01:23:52.088Z,11.97
2023-05-12T01:27:56.804Z,13.43
2023-05-12T01:31:58.092Z,14.00
2023-05-12T01:35:58.718Z,14.90
2023-05-12T01:39:58.953Z,13.00
2023-05-12T01:44:02.011Z,12.17
2023-05-12T01:48:02.737Z,10.83
2023-05-12T01:52:03.624Z,13.30
2023-05-12T01:56:04.982Z,11.33
2023-05-12T02:00:12.933Z,12.07
2023-05-12T02:04:16.380Z,13.13
2023-05-12T02:08:19.081Z,12.27
2023-05-12T02:12:19.658Z,11.73
2023-05-12T02:16:22.820Z,12.87
2023-05-12T02:20:23.032Z,16.50
2023-05-12T02:24:23.211Z,11.53
2023-05-12T02:28:23.630Z,11.43
2023-05-12T02:32:28.292Z,14.63
2023-05-12T02:36:28.614Z,15.40
2023-05-12T02:40:28.819Z,13.00
2023-05-12T02:44:30.424Z,11.97
2023-05-12T02:48:33.422Z,13.90
2023-05-12T02:52:33.799Z,14.77
2023-05-12T02:56:34.493Z,12.43
2023-05-12T03:00:35.053Z,15.17
2023-05-12T03:04:38.578Z,14.70
2023-05-12T03:08:39.169Z,13.47
2023-05-12T03:12:39.484Z,13.73
2023-05-12T03:16:39.820Z,12.33
2023-05-12T03:20:42.934Z,16.80
2023-05-12T03:24:43.384Z,15.53
2023-05-12T03:28:44.180Z,12.40
2023-05-12T03:32:48.388Z,14.07
2023-05-12T03:36:51.397Z,12.27
2023-05-12T03:40:54.112Z,16.47
2023-05-12T03:44:54.558Z,13.90
2023-05-12T03:48:55.950Z,14.53
2023-05-12T03:52:58.817Z,13.10
2023-05-12T03:56:59.076Z,13.43
2023-05-12T04:01:01.895Z,12.57
2023-05-12T04:05:02.262Z,13.40
2023-05-12T04:09:05.172Z,13.97
2023-05-12T04:13:06.020Z,14.27
2023-05-12T04:17:06.951Z,12.90
2023-05-12T04:21:07.521Z,13.80
2023-05-12T04:25:12.240Z,14.70
2023-05-12T04:29:13.798Z,14.83
2023-05-12T04:33:14.413Z,14.53
2023-05-12T04:37:15.392Z,14.40
2023-05-12T04:41:19.121Z,17.83
2023-05-12T04:45:19.980Z,12.03
2023-05-12T04:49:20.781Z,15.33
2023-05-12T04:53:21.425Z,11.77
2023-05-12T04:57:24.366Z,12.00
2023-05-12T05:01:25.133Z,12.93
2023-05-12T05:05:25.634Z,15.90
2023-05-12T05:09:26.595Z,11.23
2023-05-12T05:13:29.624Z,12.03
2023-05-12T05:17:31.747Z,12.07
2023-05-12T05:21:33.057Z,13.63
2023-05-12T05:25:34.084Z,14.47
2023-05-12T05:29:37.227Z,13.17
2023-05-12T05:33:37.638Z,8.90
2023-05-12T05:37:37.869Z,10.17
2023-05-12T05:41:38.305Z,10.33
2023-05-12T05:45:42.308Z,9.77
2023-05-12T05:49:42.807Z,15.93
2023-05-12T05:53:44.059Z,9.47
2023-05-12T05:57:45.467Z,12.03
2023-05-12T06:01:48.679Z,11.07
2023-05-12T06:05:49.643Z,10.53
2023-05-12T06:09:50.254Z,12.93
2023-05-12T06:13:50.512Z,10.03
2023-05-12T06:17:53.416Z,12.30
2023-05-12T06:21:53.729Z,10.10
2023-05-12T06:25:53.960Z,8.93
2023-05-12T06:29:55.390Z,9.73
2023-05-12T06:33:58.265Z,7.70
2023-05-12T06:37:58.505Z,8.30
2023-05-12T06:41:58.674Z,8.23
2023-05-12T06:45:59.716Z,7.40
2023-05-12T06:50:05.691Z,6.90
2023-05-12T06:54:05.965Z,7.53
2023-05-12T06:58:07.084Z,8.87
2023-05-12T07:02:07.476Z,10.97
2023-05-12T07:06:11.400Z,7.82
2023-05-12T07:10:12.656Z,9.80
2023-05-12T07:14:12.773Z,6.77
2023-05-12T07:18:13.058Z,8.10
2023-05-12T07:22:16.016Z,7.87
2023-05-12T07:26:17.386Z,7.17
2023-05-12T07:30:18.050Z,7.13
2023-05-12T07:34:18.257Z,8.30
2023-05-12T07:38:21.143Z,7.37
2023-05-12T07:42:23.835Z,5.87
2023-05-12T07:46:24.043Z,6.03
2023-05-12T07:50:24.547Z,7.67
2023-05-12T07:54:29.164Z,6.10
2023-05-12T07:58:29.725Z,5.33
2023-05-12T08:02:32.109Z,6.53
2023-05-12T08:06:32.454Z,5.57
2023-05-12T08:10:35.273Z,5.23
2023-05-12T08:14:35.518Z,5.28
2023-05-12T08:18:35.838Z,6.57
2023-05-12T08:22:36.463Z,4.83
2023-05-12T08:26:39.274Z,5.53
2023-05-12T08:30:39.613Z,6.72
2023-05-12T08:34:39.954Z,6.20
2023-05-12T08:38:40.352Z,4.15
2023-05-12T08:42:51.802Z,6.90
2023-05-12T08:46:52.396Z,5.72
2023-05-12T08:50:56.385Z,7.28
2023-05-12T08:54:57.072Z,4.85
2023-05-12T08:59:00.578Z,5.50
2023-05-12T09:03:02.720Z,4.90
2023-05-12T09:07:03.360Z,6.43
2023-05-12T09:11:04.532Z,5.53
2023-05-12T09:15:14.634Z,6.20
2023-05-12T09:19:15.013Z,4.43
2023-05-12T09:23:20.140Z,4.68
2023-05-12T09:27:28.833Z,5.43
2023-05-12T09:31:31.678Z,6.22
2023-05-12T09:35:32.070Z,5.63
2023-05-12T09:39:32.408Z,8.05
2023-05-12T09:43:32.655Z,6.68
2023-05-12T09:47:38.826Z,6.78
2023-05-12T09:51:39.143Z,5.53
2023-05-12T09:55:39.750Z,5.93
2023-05-12T09:59:43.667Z,4.20
2023-05-12T10:03:51.344Z,4.35
2023-05-12T10:07:54.512Z,8.95
2023-05-12T10:11:56.684Z,6.10
2023-05-12T10:16:00.489Z,4.68
2023-05-12T10:20:06.903Z,4.03
2023-05-12T10:24:08.337Z,3.97
2023-05-12T10:28:09.357Z,3.60
2023-05-12T10:32:09.788Z,3.85
2023-05-12T10:36:23.097Z,6.10
2023-05-12T10:40:29.429Z,3.65
2023-05-12T10:44:30.963Z,3.53
2023-05-12T10:48:31.511Z,3.08
2023-05-12T10:52:34.303Z,4.80
2023-05-12T10:56:46.932Z,2.70
2023-05-12T11:00:50.514Z,2.58
2023-05-12T11:04:53.649Z,3.30
2023-05-12T11:08:58.880Z,4.15
2023-05-12T11:13:00.174Z,2.75
2023-05-12T11:17:00.389Z,2.50
2023-05-12T11:21:01.000Z,2.55
2023-05-12T11:25:13.338Z,3.55
2023-05-12T11:29:14.110Z,3.00
2023-05-12T11:33:14.865Z,2.67
2023-05-12T11:37:15.128Z,3.63
2023-05-12T11:41:25.286Z,2.15
2023-05-12T11:45:28.986Z,3.28
2023-05-12T11:49:30.647Z,1.73
2023-05-12T11:53:31.074Z,3.75
2023-05-12T11:57:36.183Z,6.85
2023-05-12T12:01:47.523Z,2.25
2023-05-12T12:06:01.335Z,2.42
2023-05-12T12:10:13.181Z,2.58
2023-05-12T12:14:16.193Z,2.90
2023-05-12T12:18:21.334Z,2.28
2023-05-12T12:22:22.203Z,3.30
2023-05-12T12:26:29.598Z,4.80
2023-05-12T12:30:33.141Z,4.28
2023-05-12T12:34:33.986Z,3.42
2023-05-12T12:38:34.258Z,3.50
2023-05-12T12:42:34.636Z,2.70
2023-05-12T12:46:37.905Z,2.50
2023-05-12T12:50:39.633Z,4.78
2023-05-12T12:54:40.033Z,3.17
2023-05-12T12:58:40.518Z,4.20
2023-05-12T13:02:44.048Z,3.58
2023-05-12T13:06:44.714Z,2.38
2023-05-12T13:10:44.914Z,4.55
2023-05-12T13:14:45.683Z,3.30
2023-05-12T13:18:48.731Z,3.40
2023-05-12T13:22:50.096Z,4.82
2023-05-12T13:26:51.362Z,5.55
2023-05-12T13:30:51.592Z,3.42
2023-05-12T13:34:54.547Z,3.40
2023-05-12T13:38:54.757Z,5.20
2023-05-12T13:42:54.982Z,3.20
2023-05-12T13:51:36.823Z,2.50
2023-05-12T13:55:40.858Z,2.50
2023-05-12T13:59:43.656Z,2.45
2023-05-12T14:03:44.682Z,5.88
2023-05-12T14:07:47.420Z,3.58
2023-05-12T14:11:47.656Z,4.57
2023-05-12T14:15:49.910Z,3.78
2023-05-12T14:19:50.640Z,2.97
2023-05-12T14:23:53.430Z,3.25
2023-05-12T14:27:53.774Z,2.85
2023-05-12T14:31:54.129Z,4.80
2023-05-12T14:36:05.983Z,2.67
2023-05-12T14:40:12.866Z,3.25
2023-05-12T14:44:13.066Z,2.83
2023-05-12T14:48:13.603Z,4.15
2023-05-12T14:52:13.785Z,5.90
2023-05-12T14:56:16.552Z,3.58
2023-05-12T15:00:19.925Z,2.50
2023-05-12T15:04:20.130Z,4.55
2023-05-12T15:08:21.734Z,4.47
2023-05-12T15:12:24.821Z,3.67
2023-05-12T15:16:26.411Z,2.38
2023-05-12T15:20:26.692Z,3.38
2023-05-12T15:24:26.967Z,7.25
2023-05-12T15:28:29.957Z,4.30
2023-05-12T15:32:30.238Z,3.35
2023-05-12T15:36:31.137Z,6.13
2023-05-12T15:40:31.862Z,5.93
2023-05-12T15:44:34.775Z,4.22
2023-05-12T15:48:35.526Z,3.50
2023-05-12T15:52:35.829Z,3.75
2023-05-12T15:56:36.140Z,2.92
2023-05-12T16:00:39.172Z,3.38
2023-05-12T16:04:39.469Z,3.03
2023-05-12T16:08:39.656Z,3.20
2023-05-12T16:12:40.273Z,2.25
2023-05-12T16:16:48.339Z,3.28
2023-05-12T16:20:49.960Z,3.13
2023-05-12T16:24:50.925Z,5.22
2023-05-12T16:28:51.123Z,2.75
2023-05-12T16:32:54.097Z,2.10
2023-05-12T16:36:54.345Z,3.38
2023-05-12T16:40:54.542Z,8.10
2023-05-12T16:44:56.561Z,4.88
2023-05-12T16:48:59.324Z,1.42
2023-05-12T16:52:59.536Z,6.20
2023-05-12T16:57:02.025Z,1.45
2023-05-12T17:01:03.144Z,5.05
2023-05-12T17:05:06.257Z,2.83
2023-05-12T17:09:06.708Z,2.95
2023-05-12T17:13:06.980Z,2.85
2023-05-12T17:17:07.474Z,2.33
2023-05-12T17:21:10.885Z,2.78
2023-05-12T17:25:12.782Z,4.25
2023-05-12T17:29:12.977Z,1.42
2023-05-12T17:33:15.682Z,2.53
2023-05-12T17:37:18.558Z,1.38
2023-05-12T17:41:19.027Z,1.40
2023-05-12T17:45:20.262Z,2.33
2023-05-12T17:49:23.966Z,2.75
2023-05-12T17:53:29.621Z,1.20
2023-05-12T17:57:30.084Z,1.65
2023-05-12T18:01:30.718Z,1.75
2023-05-12T18:05:31.369Z,1.20
2023-05-12T18:09:34.338Z,1.10
2023-05-12T18:13:34.729Z,1.70
2023-05-12T18:17:35.272Z,2.95
2023-05-12T18:21:36.106Z,1.50
2023-05-12T18:25:39.932Z,1.52
2023-05-12T18:29:40.406Z,2.43
2023-05-12T18:33:40.912Z,1.40
2023-05-12T18:37:41.850Z,1.40
2023-05-12T18:41:45.688Z,3.57
2023-05-12T18:45:49.245Z,2.03
2023-05-12T18:49:49.701Z,2.40
2023-05-12T18:53:50.133Z,5.67
2023-05-12T18:57:53.138Z,5.37
2023-05-12T19:01:54.323Z,6.70
2023-05-12T19:05:54.768Z,3.10
2023-05-12T19:09:55.278Z,2.97
2023-05-12T19:13:58.166Z,3.43
2023-05-12T19:17:58.541Z,6.40
2023-05-12T19:21:59.542Z,2.37
2023-05-12T19:25:59.900Z,1.50
2023-05-12T19:30:05.331Z,2.27
2023-05-12T19:34:06.172Z,4.40
2023-05-12T19:38:06.625Z,3.63
2023-05-12T19:42:07.511Z,5.87
2023-05-12T19:46:10.510Z,10.30
2023-05-12T19:50:12.996Z,9.90
2023-05-12T19:54:13.650Z,9.83
2023-05-12T19:58:13.931Z,4.23
2023-05-12T20:02:19.717Z,3.43
2023-05-12T20:06:20.521Z,3.20
2023-05-12T20:10:21.096Z,3.20
2023-05-12T20:14:21.489Z,11.43
2023-05-12T20:18:24.949Z,7.50
2023-05-12T20:22:26.305Z,7.00
2023-05-12T20:26:26.609Z,7.50
2023-05-12T20:30:27.704Z,13.50
2023-05-12T20:34:30.612Z,2.97
2023-05-12T20:38:30.830Z,5.43
2023-05-12T20:42:31.231Z,3.23
2023-05-12T20:46:32.006Z,4.47
2023-05-12T20:50:34.969Z,6.20
2023-05-12T20:54:35.405Z,5.00
2023-05-12T20:58:35.847Z,7.90
2023-05-12T21:02:36.240Z,6.07
2023-05-12T21:06:40.623Z,5.07
2023-05-12T21:10:41.573Z,4.27
2023-05-12T21:14:43.121Z,4.87
2023-05-12T21:18:43.587Z,3.53
2023-05-12T21:22:46.928Z,4.43
2023-05-12T21:26:47.993Z,4.73
2023-05-12T21:30:48.379Z,4.67
2023-05-12T21:34:51.433Z,4.63
2023-05-12T21:38:54.430Z,4.90
2023-05-12T21:42:54.751Z,5.73
2023-05-12T21:46:55.379Z,7.77
2023-05-12T21:51:03.147Z,13.47
2023-05-12T21:55:08.448Z,18.67
2023-05-12T21:59:09.379Z,6.80
2023-05-12T22:03:09.774Z,6.23
2023-05-12T22:07:10.622Z,6.80
2023-05-12T22:11:14.314Z,4.83
2023-05-12T22:15:14.864Z,4.97
2023-05-12T22:19:16.666Z,3.90
2023-05-12T22:23:17.076Z,7.83
2023-05-12T22:27:22.409Z,4.43
2023-05-12T22:31:23.703Z,3.77
2023-05-12T22:35:25.047Z,6.07
2023-05-12T22:39:25.407Z,5.03
2023-05-12T22:43:28.405Z,5.63
2023-05-12T22:47:29.336Z,8.43
2023-05-12T22:51:29.575Z,7.67
2023-05-12T22:55:31.184Z,14.50
2023-05-12T22:59:33.978Z,8.57
2023-05-12T23:03:34.265Z,8.13
2023-05-12T23:07:34.554Z,22.07
2023-05-12T23:11:34.777Z,12.37
2023-05-12T23:15:37.559Z,7.20
2023-05-12T23:19:38.049Z,8.50
2023-05-12T23:23:38.230Z,9.73
2023-05-12T23:27:39.795Z,9.63
2023-05-12T23:31:42.573Z,6.57
2023-05-12T23:35:42.866Z,7.43
2023-05-12T23:39:43.076Z,7.77
2023-05-12T23:43:44.112Z,7.03
2023-05-12T23:47:46.972Z,7.57
2023-05-12T23:51:47.261Z,9.77
2023-05-12T23:55:47.470Z,5.93
2023-05-12T23:59:47.913Z,7.30
